createdAt,value
2019-01-16T00:00:08.211Z,7.75
2019-01-16T00:01:08.165Z,7.69
2019-01-16T00:02:08.141Z,7.74
2019-01-16T00:03:08.106Z,7.64
2019-01-16T00:04:08.096Z,7.61
2019-01-16T00:05:08.065Z,7.63
2019-01-16T00:06:08.076Z,7.57
2019-01-16T00:07:08.028Z,7.57
2019-01-16T00:08:08.025Z,7.60
2019-01-16T00:09:07.984Z,7.71
2019-01-16T00:10:07.978Z,7.64
2019-01-16T00:11:07.944Z,7.64
2019-01-16T00:12:07.943Z,7.61
2019-01-16T00:13:07.902Z,7.64
2019-01-16T00:14:07.882Z,7.61
2019-01-16T00:15:07.910Z,7.58
2019-01-16T00:16:07.845Z,7.61
2019-01-16T00:17:07.834Z,7.64
2019-01-16T00:18:07.812Z,7.63
2019-01-16T00:19:07.774Z,7.67
2019-01-16T00:20:07.759Z,7.58
2019-01-16T00:21:07.743Z,7.68
2019-01-16T00:22:07.707Z,7.68
2019-01-16T00:23:07.707Z,7.68
2019-01-16T00:24:07.673Z,7.71
2019-01-16T00:25:07.645Z,7.68
2019-01-16T00:26:07.624Z,7.61
2019-01-16T00:27:07.606Z,7.64
2019-01-16T00:28:07.589Z,7.57
2019-01-16T00:29:07.580Z,7.67
2019-01-16T00:30:07.548Z,7.63
2019-01-16T00:31:07.529Z,7.61
2019-01-16T00:32:08.207Z,7.55
2019-01-16T00:33:08.228Z,7.63
2019-01-16T00:34:07.476Z,7.60
2019-01-16T00:35:07.435Z,7.58
2019-01-16T00:36:08.174Z,7.50
2019-01-16T00:37:07.395Z,7.53
2019-01-16T00:38:07.392Z,7.55
2019-01-16T00:39:07.353Z,7.52
2019-01-16T00:40:07.346Z,7.57
2019-01-16T00:41:07.319Z,7.53
2019-01-16T00:42:07.291Z,7.53
2019-01-16T00:43:07.275Z,7.53
2019-01-16T00:44:07.247Z,7.49
2019-01-16T00:45:07.248Z,7.46
2019-01-16T00:46:07.207Z,7.50
2019-01-16T00:47:07.242Z,7.50
2019-01-16T00:48:07.169Z,7.52
2019-01-16T00:49:07.150Z,7.61
2019-01-16T00:50:07.122Z,7.55
2019-01-16T00:51:08.175Z,7.57
2019-01-16T00:52:07.085Z,7.52
2019-01-16T00:53:07.063Z,7.52
2019-01-16T00:54:07.041Z,7.60
2019-01-16T00:55:07.021Z,7.55
2019-01-16T00:56:07.016Z,7.52
2019-01-16T00:57:06.977Z,7.57
2019-01-16T00:58:06.956Z,7.64
2019-01-16T00:59:06.997Z,7.55
2019-01-16T01:00:06.912Z,7.61
2019-01-16T01:01:06.913Z,7.67
2019-01-16T01:02:06.877Z,7.55
2019-01-16T01:03:06.850Z,7.58
2019-01-16T01:04:06.840Z,7.53
2019-01-16T01:05:06.808Z,7.58
2019-01-16T01:06:06.789Z,7.57
2019-01-16T01:07:06.778Z,7.55
2019-01-16T01:08:06.748Z,7.58
2019-01-16T01:09:07.301Z,7.55
2019-01-16T01:10:06.699Z,7.50
2019-01-16T01:11:06.679Z,7.58
2019-01-16T01:12:06.693Z,7.53
2019-01-16T01:13:06.647Z,7.49
2019-01-16T01:14:06.620Z,7.49
2019-01-16T01:15:06.597Z,7.55
2019-01-16T01:16:06.573Z,7.55
2019-01-16T01:17:06.557Z,7.50
2019-01-16T01:18:06.552Z,7.53
2019-01-16T01:19:06.510Z,7.45
2019-01-16T01:20:06.496Z,7.45
2019-01-16T01:21:06.471Z,7.46
2019-01-16T01:22:06.453Z,7.35
2019-01-16T01:23:06.461Z,7.30
2019-01-16T01:24:06.409Z,7.28
2019-01-16T01:25:06.388Z,7.25
2019-01-16T01:26:06.370Z,7.34
2019-01-16T01:27:06.349Z,7.27
2019-01-16T01:28:06.323Z,7.24
2019-01-16T01:29:06.317Z,7.32
2019-01-16T01:30:06.281Z,7.20
2019-01-16T01:31:06.262Z,7.35
2019-01-16T01:32:06.248Z,7.31
2019-01-16T01:33:06.215Z,7.30
2019-01-16T01:34:06.227Z,7.25
2019-01-16T01:35:06.175Z,7.31
2019-01-16T01:36:06.151Z,7.31
2019-01-16T01:37:06.145Z,7.31
2019-01-16T01:38:06.112Z,7.30
2019-01-16T01:39:06.089Z,7.28
2019-01-16T01:40:06.088Z,7.30
2019-01-16T01:41:06.051Z,7.28
2019-01-16T01:42:06.029Z,7.31
2019-01-16T01:43:06.014Z,7.30
2019-01-16T01:44:05.997Z,7.30
2019-01-16T01:45:06.001Z,7.32
2019-01-16T01:46:05.946Z,7.37
2019-01-16T01:47:05.920Z,7.31
2019-01-16T01:48:05.904Z,7.35
2019-01-16T01:49:05.882Z,7.31
2019-01-16T01:50:05.860Z,7.31
2019-01-16T01:51:05.856Z,7.31
2019-01-16T01:52:05.838Z,7.31
2019-01-16T01:53:05.802Z,7.39
2019-01-16T01:54:05.776Z,7.32
2019-01-16T01:55:05.755Z,7.35
2019-01-16T01:56:05.746Z,7.32
2019-01-16T01:57:05.748Z,7.40
2019-01-16T01:58:05.700Z,7.43
2019-01-16T01:59:05.673Z,7.43
2019-01-16T02:00:05.650Z,7.42
2019-01-16T02:01:05.636Z,7.42
2019-01-16T02:02:05.607Z,7.43
2019-01-16T02:03:05.606Z,7.39
2019-01-16T02:04:05.584Z,7.42
2019-01-16T02:05:05.542Z,7.46
2019-01-16T02:06:05.521Z,7.40
2019-01-16T02:07:05.503Z,7.40
2019-01-16T02:08:05.498Z,7.39
2019-01-16T02:09:05.459Z,7.42
2019-01-16T02:10:05.436Z,7.39
2019-01-16T02:11:05.432Z,7.40
2019-01-16T02:12:05.409Z,7.43
2019-01-16T02:13:05.404Z,7.42
2019-01-16T02:14:05.362Z,7.37
2019-01-16T02:15:05.334Z,7.50
2019-01-16T02:16:05.308Z,7.45
2019-01-16T02:17:05.296Z,7.49
2019-01-16T02:18:05.282Z,7.52
2019-01-16T02:19:05.246Z,7.45
2019-01-16T02:20:05.225Z,7.50
2019-01-16T02:21:05.204Z,7.53
2019-01-16T02:22:05.181Z,7.42
2019-01-16T02:23:05.179Z,7.52
2019-01-16T02:24:05.142Z,7.48
2019-01-16T02:25:05.117Z,7.48
2019-01-16T02:26:05.098Z,7.45
2019-01-16T02:27:05.078Z,7.40
2019-01-16T02:28:05.062Z,7.42
2019-01-16T02:29:05.051Z,7.40
2019-01-16T02:30:05.057Z,7.49
2019-01-16T02:31:04.990Z,7.46
2019-01-16T02:32:04.979Z,7.49
2019-01-16T02:33:04.956Z,7.52
2019-01-16T02:34:04.929Z,7.49
2019-01-16T02:35:04.911Z,7.52
2019-01-16T02:36:04.902Z,7.48
2019-01-16T02:37:04.868Z,7.46
2019-01-16T02:38:04.845Z,7.48
2019-01-16T02:39:04.822Z,7.43
2019-01-16T02:40:04.801Z,7.48
2019-01-16T02:41:04.804Z,7.49
2019-01-16T02:42:04.762Z,7.50
2019-01-16T02:43:04.757Z,7.40
2019-01-16T02:44:04.720Z,7.43
2019-01-16T02:45:04.699Z,7.52
2019-01-16T02:46:04.676Z,7.48
2019-01-16T02:47:04.663Z,7.49
2019-01-16T02:48:04.686Z,7.50
2019-01-16T02:49:04.634Z,7.46
2019-01-16T02:50:04.604Z,7.46
2019-01-16T02:51:04.578Z,7.52
2019-01-16T02:52:04.570Z,7.49
2019-01-16T02:53:04.589Z,7.50
2019-01-16T02:54:04.529Z,7.50
2019-01-16T02:55:04.489Z,7.39
2019-01-16T02:56:04.470Z,7.39
2019-01-16T02:57:04.463Z,7.52
2019-01-16T02:58:04.423Z,7.48
2019-01-16T02:59:04.406Z,7.45
2019-01-16T03:00:04.390Z,7.45
2019-01-16T03:01:04.369Z,7.48
2019-01-16T03:02:04.340Z,7.49
2019-01-16T03:03:04.354Z,7.45
2019-01-16T03:04:04.311Z,7.48
2019-01-16T03:05:04.280Z,7.43
2019-01-16T03:06:04.258Z,7.43
2019-01-16T03:07:04.238Z,7.49
2019-01-16T03:08:04.215Z,7.46
2019-01-16T03:09:04.225Z,7.48
2019-01-16T03:10:04.177Z,7.46
2019-01-16T03:11:04.153Z,7.39
2019-01-16T03:12:04.132Z,7.34
2019-01-16T03:13:04.113Z,7.40
2019-01-16T03:14:04.085Z,7.39
2019-01-16T03:15:04.086Z,7.37
2019-01-16T03:16:04.048Z,7.43
2019-01-16T03:17:04.030Z,7.37
2019-01-16T03:18:04.003Z,7.45
2019-01-16T03:19:04.733Z,7.37
2019-01-16T03:20:03.963Z,7.40
2019-01-16T03:21:03.958Z,7.39
2019-01-16T03:22:03.923Z,7.40
2019-01-16T03:23:03.903Z,7.39
2019-01-16T03:24:03.882Z,7.39
2019-01-16T03:25:03.861Z,7.49
2019-01-16T03:26:03.860Z,7.46
2019-01-16T03:27:03.818Z,7.43
2019-01-16T03:28:03.802Z,7.35
2019-01-16T03:29:03.771Z,7.40
2019-01-16T03:30:03.753Z,7.43
2019-01-16T03:31:03.755Z,7.46
2019-01-16T03:32:03.719Z,7.42
2019-01-16T03:33:03.690Z,7.34
2019-01-16T03:34:03.668Z,7.30
2019-01-16T03:35:03.648Z,7.35
2019-01-16T03:36:03.630Z,7.34
2019-01-16T03:37:03.622Z,7.35
2019-01-16T03:38:03.606Z,7.28
2019-01-16T03:39:03.562Z,7.17
2019-01-16T03:40:03.547Z,7.35
2019-01-16T03:41:03.519Z,7.31
2019-01-16T03:42:03.522Z,7.28
2019-01-16T03:43:03.490Z,7.37
2019-01-16T03:44:03.471Z,7.32
2019-01-16T03:45:03.436Z,7.23
2019-01-16T03:46:03.415Z,7.20
2019-01-16T03:47:03.395Z,7.20
2019-01-16T03:48:03.395Z,7.28
2019-01-16T03:49:03.359Z,7.16
2019-01-16T03:50:03.369Z,7.12
2019-01-16T03:51:03.309Z,7.17
2019-01-16T03:52:03.286Z,7.17
2019-01-16T03:53:03.272Z,7.13
2019-01-16T03:54:03.251Z,7.12
2019-01-16T03:55:03.225Z,7.12
2019-01-16T03:56:03.218Z,7.10
2019-01-16T03:57:03.187Z,7.10
2019-01-16T03:58:03.163Z,7.12
2019-01-16T03:59:03.139Z,7.12
2019-01-16T04:00:03.121Z,7.10
2019-01-16T04:01:03.137Z,7.15
2019-01-16T04:02:03.080Z,7.15
2019-01-16T04:03:03.745Z,7.23
2019-01-16T04:04:03.038Z,7.20
2019-01-16T04:05:03.014Z,7.27
2019-01-16T04:06:03.007Z,7.27
2019-01-16T04:07:02.976Z,7.24
2019-01-16T04:08:02.961Z,7.21
2019-01-16T04:09:02.948Z,7.25
2019-01-16T04:10:02.912Z,7.23
2019-01-16T04:11:02.887Z,7.23
2019-01-16T04:12:02.872Z,7.21
2019-01-16T04:13:02.863Z,7.21
2019-01-16T04:14:02.832Z,7.24
2019-01-16T04:15:03.703Z,7.21
2019-01-16T04:16:02.783Z,7.23
2019-01-16T04:17:02.759Z,7.23
2019-01-16T04:18:02.757Z,7.24
2019-01-16T04:19:02.718Z,7.37
2019-01-16T04:20:02.701Z,7.31
2019-01-16T04:21:02.676Z,7.31
2019-01-16T04:22:02.683Z,7.31
2019-01-16T04:23:02.647Z,7.37
2019-01-16T04:24:02.617Z,7.42
2019-01-16T04:25:02.624Z,7.40
2019-01-16T04:26:02.577Z,7.31
2019-01-16T04:27:02.549Z,7.37
2019-01-16T04:28:02.526Z,7.46
2019-01-16T04:29:02.512Z,7.42
2019-01-16T04:30:02.509Z,7.43
2019-01-16T04:31:02.484Z,7.39
2019-01-16T04:32:02.467Z,7.42
2019-01-16T04:33:02.428Z,7.42
2019-01-16T04:34:02.411Z,7.43
2019-01-16T04:35:02.402Z,7.46
2019-01-16T04:36:02.386Z,7.42
2019-01-16T04:37:02.342Z,7.42
2019-01-16T04:38:02.316Z,7.40
2019-01-16T04:39:02.309Z,7.48
2019-01-16T04:40:02.321Z,7.43
2019-01-16T04:41:02.269Z,7.37
2019-01-16T04:42:02.233Z,7.43
2019-01-16T04:43:02.225Z,7.40
2019-01-16T04:44:02.193Z,7.43
2019-01-16T04:45:02.173Z,7.40
2019-01-16T04:46:02.156Z,7.49
2019-01-16T04:47:02.142Z,7.46
2019-01-16T04:48:02.137Z,7.39
2019-01-16T04:49:02.087Z,7.55
2019-01-16T04:50:02.067Z,7.45
2019-01-16T04:51:02.057Z,7.55
2019-01-16T04:52:02.029Z,7.57
2019-01-16T04:53:02.017Z,7.45
2019-01-16T04:54:02.001Z,7.49
2019-01-16T04:55:01.962Z,7.45
2019-01-16T04:56:01.939Z,7.46
2019-01-16T04:57:01.939Z,7.49
2019-01-16T04:58:01.896Z,7.46
2019-01-16T04:59:01.911Z,7.46
2019-01-16T05:00:01.875Z,7.43
2019-01-16T05:01:01.834Z,7.48
2019-01-16T05:02:01.812Z,7.46
2019-01-16T05:03:01.791Z,7.49
2019-01-16T05:04:01.775Z,7.48
2019-01-16T05:05:02.324Z,7.45
2019-01-16T05:06:01.733Z,7.46
2019-01-16T05:07:01.705Z,7.42
2019-01-16T05:08:01.690Z,7.50
2019-01-16T05:09:01.672Z,7.50
2019-01-16T05:10:01.679Z,7.48
2019-01-16T05:11:01.625Z,7.49
2019-01-16T05:12:01.603Z,7.55
2019-01-16T05:13:01.589Z,7.50
2019-01-16T05:14:01.553Z,7.50
2019-01-16T05:15:01.535Z,7.52
2019-01-16T05:16:01.532Z,7.43
2019-01-16T05:17:01.495Z,7.50
2019-01-16T05:18:01.474Z,7.52
2019-01-16T05:19:01.449Z,7.49
2019-01-16T05:20:01.484Z,7.53
2019-01-16T05:21:01.428Z,7.49
2019-01-16T05:22:01.408Z,7.48
2019-01-16T05:23:01.433Z,7.43
2019-01-16T05:24:01.345Z,7.50
2019-01-16T05:25:01.326Z,7.53
2019-01-16T05:26:01.317Z,7.49
2019-01-16T05:27:01.311Z,7.53
2019-01-16T05:28:01.263Z,7.49
2019-01-16T05:29:01.239Z,7.48
2019-01-16T05:30:01.217Z,7.50
2019-01-16T05:31:01.198Z,7.50
2019-01-16T05:32:01.179Z,7.50
2019-01-16T05:33:01.176Z,7.50
2019-01-16T05:34:01.152Z,7.53
2019-01-16T05:35:01.113Z,7.53
2019-01-16T05:36:01.096Z,7.50
2019-01-16T05:37:01.091Z,7.48
2019-01-16T05:38:01.052Z,7.53
2019-01-16T05:39:01.058Z,7.53
2019-01-16T05:40:01.018Z,7.46
2019-01-16T05:41:00.989Z,7.35
2019-01-16T05:42:00.964Z,7.49
2019-01-16T05:43:00.948Z,7.52
2019-01-16T05:44:00.929Z,7.55
2019-01-16T05:45:00.923Z,7.57
2019-01-16T05:46:00.887Z,7.55
2019-01-16T05:47:00.858Z,7.58
2019-01-16T05:48:00.838Z,7.53
2019-01-16T05:49:00.817Z,7.50
2019-01-16T05:50:00.880Z,7.50
2019-01-16T05:51:00.775Z,7.61
2019-01-16T05:52:00.758Z,7.53
2019-01-16T05:53:00.736Z,7.50
2019-01-16T05:54:00.711Z,7.49
2019-01-16T05:55:00.727Z,7.53
2019-01-16T05:56:00.677Z,7.55
2019-01-16T05:57:00.655Z,7.61
2019-01-16T05:58:00.632Z,7.57
2019-01-16T05:59:00.615Z,7.61
2019-01-16T06:00:00.583Z,7.60
2019-01-16T06:01:00.595Z,7.67
2019-01-16T06:02:01.022Z,7.58
2019-01-16T06:04:55.047Z,7.60
2019-01-16T06:05:54.662Z,7.57
2019-01-16T06:06:54.665Z,7.53
2019-01-16T06:07:54.666Z,7.61
2019-01-16T06:08:54.598Z,7.57
2019-01-16T06:09:54.590Z,7.67
2019-01-16T06:10:54.563Z,7.60
2019-01-16T06:11:54.569Z,7.64
2019-01-16T06:12:54.520Z,7.57
2019-01-16T06:13:54.495Z,7.52
2019-01-16T06:14:54.473Z,7.57
2019-01-16T06:15:54.452Z,7.50
2019-01-16T06:16:54.428Z,7.60
2019-01-16T06:17:54.428Z,7.55
2019-01-16T06:18:54.391Z,7.60
2019-01-16T06:19:54.378Z,7.64
2019-01-16T06:20:54.349Z,7.58
2019-01-16T06:21:54.322Z,7.53
2019-01-16T06:22:54.313Z,7.61
2019-01-16T06:23:54.300Z,7.61
2019-01-16T06:24:54.273Z,7.61
2019-01-16T06:25:54.244Z,7.52
2019-01-16T06:26:54.219Z,7.53
2019-01-16T06:27:54.200Z,7.60
2019-01-16T06:28:54.216Z,7.55
2019-01-16T06:29:54.156Z,7.61
2019-01-16T06:30:54.138Z,7.60
2019-01-16T06:31:54.128Z,7.58
2019-01-16T06:32:54.123Z,7.60
2019-01-16T06:33:54.077Z,7.57
2019-01-16T06:34:54.077Z,7.58
2019-01-16T06:35:54.048Z,7.55
2019-01-16T06:36:54.012Z,7.64
2019-01-16T06:37:53.990Z,7.63
2019-01-16T06:38:53.971Z,7.53
2019-01-16T06:39:53.977Z,7.55
2019-01-16T06:40:53.926Z,7.55
2019-01-16T06:41:53.916Z,7.63
2019-01-16T06:42:53.889Z,7.67
2019-01-16T06:43:53.868Z,7.67
2019-01-16T06:44:53.846Z,7.61
2019-01-16T06:45:53.836Z,7.61
2019-01-16T06:46:53.803Z,7.63
2019-01-16T06:47:53.780Z,7.63
2019-01-16T06:48:53.757Z,7.60
2019-01-16T06:49:53.729Z,7.63
2019-01-16T06:50:53.733Z,7.60
2019-01-16T06:51:53.719Z,7.67
2019-01-16T06:52:53.677Z,7.58
2019-01-16T06:53:53.672Z,7.61
2019-01-16T06:54:53.629Z,7.61
2019-01-16T06:55:53.612Z,7.60
2019-01-16T06:56:53.605Z,7.68
2019-01-16T06:57:53.573Z,7.60
2019-01-16T06:58:53.544Z,7.55
2019-01-16T06:59:53.524Z,7.61
2019-01-16T07:00:53.505Z,7.63
2019-01-16T07:01:53.501Z,7.63
2019-01-16T07:02:53.464Z,7.57
2019-01-16T07:03:53.441Z,7.55
2019-01-16T07:04:53.421Z,7.52
2019-01-16T07:05:53.407Z,7.57
2019-01-16T07:06:53.385Z,7.50
2019-01-16T07:07:53.369Z,7.53
2019-01-16T07:08:53.336Z,7.50
2019-01-16T07:09:53.314Z,7.50
2019-01-16T07:10:53.297Z,7.55
2019-01-16T07:11:53.299Z,7.52
2019-01-16T07:12:53.251Z,7.53
2019-01-16T07:13:53.227Z,7.50
2019-01-16T07:14:57.826Z,7.53
2019-01-16T07:15:53.181Z,7.52
2019-01-16T07:16:53.162Z,7.50
2019-01-16T07:17:53.159Z,7.55
2019-01-16T07:18:53.144Z,7.57
2019-01-16T07:19:53.104Z,7.52
2019-01-16T07:20:53.097Z,7.53
2019-01-16T07:21:53.057Z,7.49
2019-01-16T07:22:53.034Z,7.53
2019-01-16T07:23:53.013Z,7.53
2019-01-16T07:24:53.764Z,7.53
2019-01-16T07:25:52.981Z,7.50
2019-01-16T07:26:52.952Z,7.50
2019-01-16T07:27:52.931Z,7.55
2019-01-16T07:28:52.928Z,7.48
2019-01-16T07:29:52.888Z,7.50
2019-01-16T07:30:52.866Z,7.49
2019-01-16T07:31:52.856Z,7.50
2019-01-16T07:32:52.842Z,7.55
2019-01-16T07:33:52.807Z,7.57
2019-01-16T07:34:52.785Z,7.58
2019-01-16T07:35:52.760Z,7.50
2019-01-16T07:36:52.745Z,7.55
2019-01-16T07:37:53.277Z,7.45
2019-01-16T07:38:52.724Z,7.50
2019-01-16T07:39:52.708Z,7.52
2019-01-16T07:40:52.660Z,7.50
2019-01-16T07:41:52.642Z,7.53
2019-01-16T07:42:52.697Z,7.53
2019-01-16T07:43:52.597Z,7.57
2019-01-16T07:44:52.575Z,7.53
2019-01-16T07:45:52.599Z,7.53
2019-01-16T07:46:52.545Z,7.53
2019-01-16T07:47:52.533Z,7.52
2019-01-16T07:48:52.550Z,7.58
2019-01-16T07:49:52.466Z,7.58
2019-01-16T07:50:52.443Z,7.53
2019-01-16T07:51:52.461Z,7.49
2019-01-16T07:52:52.405Z,7.53
2019-01-16T07:53:52.383Z,7.43
2019-01-16T07:54:52.352Z,7.85
2019-01-16T07:55:52.341Z,7.83
2019-01-16T07:56:52.320Z,7.82
2019-01-16T07:57:52.327Z,7.79
2019-01-16T07:58:52.281Z,7.80
2019-01-16T07:59:52.264Z,7.92
2019-01-16T08:00:52.229Z,7.90
2019-01-16T08:01:52.219Z,7.82
2019-01-16T08:02:52.190Z,7.82
2019-01-16T08:03:52.191Z,7.82
2019-01-16T08:04:52.149Z,7.85
2019-01-16T08:05:52.126Z,7.82
2019-01-16T08:06:52.107Z,7.64
2019-01-16T08:07:52.087Z,7.61
2019-01-16T08:08:52.080Z,7.52
2019-01-16T08:09:52.044Z,7.53
2019-01-16T08:10:52.019Z,7.57
2019-01-16T08:11:52.004Z,7.48
2019-01-16T08:12:51.983Z,7.49
2019-01-16T08:13:51.959Z,7.48
2019-01-16T08:14:51.972Z,7.50
2019-01-16T08:15:51.915Z,7.53
2019-01-16T08:16:51.911Z,7.53
2019-01-16T08:17:51.886Z,7.42
2019-01-16T08:18:51.851Z,7.43
2019-01-16T08:19:51.828Z,7.37
2019-01-16T08:20:51.828Z,7.46
2019-01-16T08:21:51.786Z,7.55
2019-01-16T08:22:51.763Z,7.55
2019-01-16T08:23:51.746Z,7.43
2019-01-16T08:24:51.748Z,7.42
2019-01-16T08:25:51.698Z,7.46
2019-01-16T08:26:51.682Z,7.46
2019-01-16T08:27:51.663Z,7.35
2019-01-16T08:28:51.657Z,7.45
2019-01-16T08:29:51.616Z,7.46
2019-01-16T08:30:51.632Z,7.42
2019-01-16T08:31:51.580Z,7.45
2019-01-16T08:32:51.555Z,7.42
2019-01-16T08:33:51.535Z,7.52
2019-01-16T08:34:51.512Z,7.42
2019-01-16T08:35:51.496Z,7.45
2019-01-16T08:36:51.486Z,7.43
2019-01-16T08:37:51.456Z,7.45
2019-01-16T08:38:51.427Z,7.42
2019-01-16T08:39:51.409Z,7.39
2019-01-16T08:40:51.387Z,7.46
2019-01-16T08:41:51.381Z,7.42
2019-01-16T08:42:51.342Z,7.39
2019-01-16T08:43:51.340Z,7.39
2019-01-16T08:44:51.299Z,7.37
2019-01-16T08:45:51.277Z,7.39
2019-01-16T08:46:51.262Z,7.37
2019-01-16T08:47:51.255Z,7.42
2019-01-16T08:48:51.237Z,7.43
2019-01-16T08:49:51.205Z,7.39
2019-01-16T08:50:51.176Z,7.46
2019-01-16T08:51:51.158Z,7.39
2019-01-16T08:52:51.127Z,7.40
2019-01-16T08:53:51.130Z,7.46
2019-01-16T08:54:51.090Z,7.39
2019-01-16T08:55:51.065Z,7.45
2019-01-16T08:56:51.044Z,7.52
2019-01-16T08:57:51.033Z,7.48
2019-01-16T08:58:51.023Z,7.49
2019-01-16T08:59:50.981Z,7.53
2019-01-16T09:00:50.962Z,7.49
2019-01-16T09:01:50.939Z,7.40
2019-01-16T09:02:50.920Z,7.53
2019-01-16T09:03:50.901Z,7.45
2019-01-16T09:04:51.342Z,7.50
2019-01-16T09:05:51.821Z,7.50
2019-01-16T09:06:50.898Z,7.52
2019-01-16T09:07:50.896Z,7.46
2019-01-16T09:08:50.845Z,7.49
2019-01-16T09:09:50.883Z,7.52
2019-01-16T09:10:50.904Z,7.52
2019-01-16T09:11:50.758Z,7.48
2019-01-16T09:12:50.892Z,7.52
2019-01-16T09:13:51.244Z,7.52
2019-01-16T09:14:50.665Z,7.50
2019-01-16T09:15:50.641Z,7.53
2019-01-16T09:16:50.618Z,7.48
2019-01-16T09:17:50.599Z,7.53
2019-01-16T09:18:50.579Z,7.42
2019-01-16T09:19:50.579Z,7.49
2019-01-16T09:20:50.542Z,7.50
2019-01-16T09:21:50.514Z,7.53
2019-01-16T09:22:50.550Z,7.57
2019-01-16T09:23:50.480Z,7.50
2019-01-16T09:24:50.474Z,7.45
2019-01-16T09:25:50.430Z,7.48
2019-01-16T09:26:50.421Z,7.50
2019-01-16T09:27:50.393Z,7.48
2019-01-16T09:28:50.366Z,7.50
2019-01-16T09:29:50.363Z,7.37
2019-01-16T09:30:50.345Z,7.48
2019-01-16T09:31:50.308Z,7.49
2019-01-16T09:32:50.297Z,7.49
2019-01-16T09:33:50.273Z,7.49
2019-01-16T09:34:50.241Z,7.53
2019-01-16T09:35:50.237Z,7.50
2019-01-16T09:36:50.207Z,7.52
2019-01-16T09:37:50.174Z,7.57
2019-01-16T09:38:50.155Z,7.52
2019-01-16T09:39:50.139Z,7.58
2019-01-16T09:40:50.135Z,7.50
2019-01-16T09:41:50.094Z,7.48
2019-01-16T09:42:50.075Z,7.53
2019-01-16T09:43:50.069Z,7.48
2019-01-16T09:44:50.043Z,7.53
2019-01-16T09:45:50.015Z,7.53
2019-01-16T09:46:49.992Z,7.50
2019-01-16T09:47:49.994Z,7.50
2019-01-16T09:48:49.947Z,7.48
2019-01-16T09:49:49.926Z,7.49
2019-01-16T09:50:49.911Z,7.48
2019-01-16T09:51:49.919Z,7.42
2019-01-16T09:52:49.871Z,7.40
2019-01-16T09:53:50.863Z,7.40
2019-01-16T09:54:49.823Z,7.53
2019-01-16T09:55:49.808Z,7.48
2019-01-16T09:56:49.786Z,7.39
2019-01-16T09:57:49.783Z,7.48
2019-01-16T09:58:49.807Z,7.45
2019-01-16T09:59:49.736Z,7.46
2019-01-16T10:00:49.709Z,7.43
2019-01-16T10:01:49.676Z,7.42
2019-01-16T10:02:49.706Z,7.46
2019-01-16T10:03:49.629Z,7.46
2019-01-16T10:04:49.687Z,7.42
2019-01-16T10:05:49.603Z,7.42
2019-01-16T10:06:49.568Z,7.45
2019-01-16T10:07:49.551Z,7.45
2019-01-16T10:08:49.569Z,7.42
2019-01-16T10:09:49.515Z,7.53
2019-01-16T10:10:49.521Z,7.42
2019-01-16T10:11:49.467Z,7.40
2019-01-16T10:12:49.442Z,7.40
2019-01-16T10:13:49.431Z,7.52
2019-01-16T10:14:49.404Z,7.39
2019-01-16T10:15:49.401Z,7.40
2019-01-16T10:16:49.359Z,7.42
2019-01-16T10:17:49.349Z,7.49
2019-01-16T10:18:49.318Z,7.43
2019-01-16T10:19:49.297Z,7.35
2019-01-16T10:20:55.539Z,7.35
2019-01-16T10:21:49.264Z,7.42
2019-01-16T10:22:49.243Z,7.46
2019-01-16T10:23:49.213Z,7.45
2019-01-16T10:24:49.192Z,7.46
2019-01-16T10:25:49.172Z,7.45
2019-01-16T10:26:49.171Z,7.40
2019-01-16T10:27:49.134Z,7.50
2019-01-16T10:28:49.128Z,7.45
2019-01-16T10:29:49.090Z,7.49
2019-01-16T10:30:49.064Z,7.49
2019-01-16T10:31:49.064Z,7.48
2019-01-16T10:32:49.044Z,7.50
2019-01-16T10:33:49.019Z,7.48
2019-01-16T10:34:48.985Z,7.53
2019-01-16T10:35:48.961Z,7.57
2019-01-16T10:36:48.938Z,7.48
2019-01-16T10:37:48.933Z,7.45
2019-01-16T10:38:48.896Z,7.40
2019-01-16T10:39:48.876Z,7.52
2019-01-16T10:40:48.882Z,7.53
2019-01-16T10:41:48.833Z,7.53
2019-01-16T10:42:48.832Z,7.53
2019-01-16T10:43:48.795Z,7.58
2019-01-16T10:44:48.773Z,7.50
2019-01-16T10:45:48.747Z,7.53
2019-01-16T10:46:48.729Z,7.57
2019-01-16T10:47:48.723Z,7.57
2019-01-16T10:48:49.784Z,7.52
2019-01-16T10:49:48.664Z,7.53
2019-01-16T10:50:48.645Z,7.55
2019-01-16T10:51:48.622Z,7.60
2019-01-16T10:52:48.628Z,7.61
2019-01-16T10:53:48.583Z,7.61
2019-01-16T10:54:48.560Z,7.55
2019-01-16T10:55:48.544Z,7.63
2019-01-16T10:56:48.521Z,7.61
2019-01-16T10:57:48.503Z,7.60
2019-01-16T10:58:48.504Z,7.61
2019-01-16T10:59:48.456Z,7.64
2019-01-16T11:00:48.448Z,7.61
2019-01-16T11:01:48.412Z,7.61
2019-01-16T11:02:48.393Z,7.72
2019-01-16T11:03:48.398Z,7.68
2019-01-16T11:04:48.373Z,7.71
2019-01-16T11:05:48.335Z,7.74
2019-01-16T11:06:48.314Z,7.71
2019-01-16T11:07:48.296Z,7.72
2019-01-16T11:08:48.293Z,7.67
2019-01-16T11:09:48.254Z,7.71
2019-01-16T11:10:48.229Z,7.71
2019-01-16T11:11:48.211Z,7.72
2019-01-16T11:12:48.206Z,7.68
2019-01-16T11:13:48.165Z,7.74
2019-01-16T11:14:48.166Z,7.72
2019-01-16T11:15:48.128Z,7.64
2019-01-16T11:16:48.103Z,7.68
2019-01-16T11:17:48.117Z,7.71
2019-01-16T11:18:48.065Z,7.63
2019-01-16T11:19:48.042Z,7.72
2019-01-16T11:20:48.041Z,7.61
2019-01-16T11:21:48.005Z,7.58
2019-01-16T11:22:47.985Z,7.61
2019-01-16T11:23:47.964Z,7.63
2019-01-16T11:24:47.942Z,7.52
2019-01-16T11:25:47.927Z,7.60
2019-01-16T11:26:47.926Z,7.60
2019-01-16T11:27:47.883Z,7.63
2019-01-16T11:28:47.867Z,7.60
2019-01-16T11:29:47.849Z,7.60
2019-01-16T11:30:47.820Z,7.64
2019-01-16T11:31:47.834Z,7.58
2019-01-16T11:32:47.781Z,7.50
2019-01-16T11:33:47.757Z,7.55
2019-01-16T11:34:47.734Z,7.63
2019-01-16T11:35:47.719Z,7.53
2019-01-16T11:36:47.696Z,7.48
2019-01-16T11:37:47.725Z,7.48
2019-01-16T11:38:47.655Z,7.48
2019-01-16T11:39:47.630Z,7.52
2019-01-16T11:40:47.629Z,7.46
2019-01-16T11:41:47.593Z,7.50
2019-01-16T11:42:47.569Z,7.40
2019-01-16T11:43:47.552Z,7.42
2019-01-16T11:44:47.548Z,7.39
2019-01-16T11:45:47.530Z,7.37
2019-01-16T11:46:47.485Z,7.37
2019-01-16T11:47:47.468Z,7.40
2019-01-16T11:48:47.443Z,7.37
2019-01-16T11:49:47.455Z,7.43
2019-01-16T11:50:47.408Z,7.42
2019-01-16T11:51:47.383Z,7.37
2019-01-16T11:52:47.371Z,7.37
2019-01-16T11:53:47.341Z,7.42
2019-01-16T11:54:47.332Z,7.34
2019-01-16T11:55:47.316Z,7.32
2019-01-16T11:56:47.279Z,7.42
2019-01-16T11:57:47.255Z,7.45
2019-01-16T11:58:47.249Z,7.34
2019-01-16T11:59:47.220Z,7.34
2019-01-16T12:00:47.212Z,7.28
2019-01-16T12:01:47.181Z,7.34
2019-01-16T12:02:47.160Z,7.35
2019-01-16T12:03:47.130Z,7.40
2019-01-16T12:04:48.729Z,7.31
2019-01-16T12:05:47.087Z,7.31
2019-01-16T12:06:47.098Z,7.43
2019-01-16T12:07:47.121Z,7.32
2019-01-16T12:08:47.034Z,7.34
2019-01-16T12:09:47.040Z,7.30
2019-01-16T12:10:46.982Z,7.31
2019-01-16T12:11:46.977Z,7.27
2019-01-16T12:12:49.356Z,7.34
2019-01-16T12:13:46.941Z,7.34
2019-01-16T12:14:46.901Z,7.27
2019-01-16T12:15:46.892Z,7.31
2019-01-16T12:16:46.861Z,7.35
2019-01-16T12:17:46.845Z,7.32
2019-01-16T12:18:46.834Z,7.39
2019-01-16T12:19:46.795Z,7.34
2019-01-16T12:20:46.775Z,7.28
2019-01-16T12:21:46.759Z,7.34
2019-01-16T12:22:46.749Z,7.35
2019-01-16T12:23:46.729Z,7.34
2019-01-16T12:24:46.701Z,7.28
2019-01-16T12:25:46.691Z,7.30
2019-01-16T12:26:46.657Z,7.28
2019-01-16T12:27:46.690Z,7.28
2019-01-16T12:28:46.877Z,7.28
2019-01-16T12:29:46.591Z,7.39
2019-01-16T12:30:46.576Z,7.31
2019-01-16T12:31:46.541Z,7.35
2019-01-16T12:32:46.520Z,7.31
2019-01-16T12:33:46.520Z,7.34
2019-01-16T12:34:46.480Z,7.42
2019-01-16T12:35:46.463Z,7.40
2019-01-16T12:36:46.450Z,7.42
2019-01-16T12:37:46.412Z,7.35
2019-01-16T12:38:46.393Z,7.42
2019-01-16T12:39:46.397Z,7.31
2019-01-16T12:40:46.350Z,7.30
2019-01-16T12:41:46.332Z,7.45
2019-01-16T12:42:46.321Z,7.39
2019-01-16T12:43:46.292Z,7.43
2019-01-16T12:44:46.272Z,7.42
2019-01-16T12:45:46.274Z,7.45
2019-01-16T12:46:46.246Z,7.42
2019-01-16T12:47:46.203Z,7.42
2019-01-16T12:48:46.191Z,7.35
2019-01-16T12:49:46.164Z,7.42
2019-01-16T12:50:46.147Z,7.39
2019-01-16T12:51:46.124Z,7.35
2019-01-16T12:52:46.119Z,7.39
2019-01-16T12:53:46.084Z,7.39
2019-01-16T12:54:46.059Z,7.40
2019-01-16T12:55:46.040Z,7.37
2019-01-16T12:56:46.049Z,7.40
2019-01-16T12:57:45.991Z,7.37
2019-01-16T12:58:45.970Z,7.45
2019-01-16T12:59:45.971Z,7.37
2019-01-16T13:00:45.933Z,7.45
2019-01-16T13:01:45.910Z,7.40
2019-01-16T13:02:45.901Z,7.40
2019-01-16T13:03:45.889Z,7.46
2019-01-16T13:04:45.849Z,7.52
2019-01-16T13:07:27.764Z,7.49
2019-01-16T13:08:27.729Z,7.52
2019-01-16T13:09:27.703Z,7.43
2019-01-16T13:10:27.684Z,7.50
2019-01-16T13:11:27.668Z,7.46
2019-01-16T13:12:27.651Z,7.46
2019-01-16T13:13:27.651Z,7.48
2019-01-16T13:14:30.106Z,7.52
2019-01-16T13:15:27.589Z,7.42
2019-01-16T13:16:27.574Z,7.46
2019-01-16T13:17:27.551Z,7.55
2019-01-16T13:18:27.533Z,7.48
2019-01-16T13:19:27.498Z,7.58
2019-01-16T13:20:27.478Z,7.52
2019-01-16T13:21:27.464Z,7.52